sensor_id;sensor_type;location;lat;lon;timestamp;temperature;humidity
30234;DHT22;17046;52.074;4.748;2023-03-01T00:02:20;0.60;99.90
30234;DHT22;17046;52.074;4.748;2023-03-01T00:04:46;0.60;99.90
30234;DHT22;17046;52.074;4.748;2023-03-01T00:07:11;0.60;99.90
30234;DHT22;17046;52.074;4.748;2023-03-01T00:09:37;0.70;99.90
30234;DHT22;17046;52.074;4.748;2023-03-01T00:12:03;0.70;99.90
30234;DHT22;17046;52.074;4.748;2023-03-01T00:14:29;0.60;99.90
30234;DHT22;17046;52.074;4.748;2023-03-01T00:16:54;0.50;99.90
30234;DHT22;17046;52.074;4.748;2023-03-01T00:19:20;0.50;99.90
30234;DHT22;17046;52.074;4.748;2023-03-01T00:21:48;0.40;99.90
30234;DHT22;17046;52.074;4.748;2023-03-01T00:24:14;0.50;99.90
30234;DHT22;17046;52.074;4.748;2023-03-01T00:26:40;0.60;99.90
30234;DHT22;17046;52.074;4.748;2023-03-01T00:29:06;0.60;99.90
30234;DHT22;17046;52.074;4.748;2023-03-01T00:31:33;0.40;99.90
30234;DHT22;17046;52.074;4.748;2023-03-01T00:34:01;0.40;99.90
30234;DHT22;17046;52.074;4.748;2023-03-01T00:36:30;0.40;99.90
30234;DHT22;17046;52.074;4.748;2023-03-01T00:38:56;0.40;99.90
30234;DHT22;17046;52.074;4.748;2023-03-01T00:41:22;0.30;99.90
30234;DHT22;17046;52.074;4.748;2023-03-01T00:43:49;0.30;99.90
30234;DHT22;17046;52.074;4.748;2023-03-01T00:46:20;0.40;99.90
30234;DHT22;17046;52.074;4.748;2023-03-01T00:48:46;0.20;99.90
30234;DHT22;17046;52.074;4.748;2023-03-01T00:51:21;0.20;99.90
30234;DHT22;17046;52.074;4.748;2023-03-01T00:53:50;0.20;99.90
30234;DHT22;17046;52.074;4.748;2023-03-01T00:56:16;0.20;99.90
30234;DHT22;17046;52.074;4.748;2023-03-01T00:58:42;0.10;99.90
30234;DHT22;17046;52.074;4.748;2023-03-01T01:01:16;0.10;99.90
30234;DHT22;17046;52.074;4.748;2023-03-01T01:06:15;0.10;99.90
30234;DHT22;17046;52.074;4.748;2023-03-01T01:08:40;0.10;99.90
30234;DHT22;17046;52.074;4.748;2023-03-01T01:11:09;0.20;99.90
30234;DHT22;17046;52.074;4.748;2023-03-01T01:13:35;0.10;99.90
30234;DHT22;17046;52.074;4.748;2023-03-01T01:16:01;0.20;99.90
30234;DHT22;17046;52.074;4.748;2023-03-01T01:18:27;0.20;99.90
30234;DHT22;17046;52.074;4.748;2023-03-01T01:20:52;0.20;99.90
30234;DHT22;17046;52.074;4.748;2023-03-01T01:23:18;0.20;99.90
30234;DHT22;17046;52.074;4.748;2023-03-01T01:25:43;0.30;99.90
30234;DHT22;17046;52.074;4.748;2023-03-01T01:28:09;0.30;99.90
30234;DHT22;17046;52.074;4.748;2023-03-01T01:30:34;0.40;99.90
30234;DHT22;17046;52.074;4.748;2023-03-01T01:33:00;0.40;99.90
30234;DHT22;17046;52.074;4.748;2023-03-01T01:35:25;0.40;99.90
30234;DHT22;17046;52.074;4.748;2023-03-01T01:37:52;0.30;99.90
30234;DHT22;17046;52.074;4.748;2023-03-01T01:40:18;0.30;99.90
30234;DHT22;17046;52.074;4.748;2023-03-01T01:42:43;0.20;99.90
30234;DHT22;17046;52.074;4.748;2023-03-01T01:45:33;0.20;99.90
30234;DHT22;17046;52.074;4.748;2023-03-01T01:48:03;0.10;99.90
30234;DHT22;17046;52.074;4.748;2023-03-01T01:50:30;0.10;99.90
30234;DHT22;17046;52.074;4.748;2023-03-01T01:53:05;0.10;99.90
30234;DHT22;17046;52.074;4.748;2023-03-01T01:55:31;0.20;99.90
30234;DHT22;17046;52.074;4.748;2023-03-01T01:58:01;0.20;99.90
30234;DHT22;17046;52.074;4.748;2023-03-01T02:00:28;0.20;99.90
30234;DHT22;17046;52.074;4.748;2023-03-01T02:03:03;0.20;99.90
30234;DHT22;17046;52.074;4.748;2023-03-01T02:08:21;0.10;99.90
30234;DHT22;17046;52.074;4.748;2023-03-01T02:10:49;0.10;99.90
30234;DHT22;17046;52.074;4.748;2023-03-01T02:13:15;0.20;99.90
30234;DHT22;17046;52.074;4.748;2023-03-01T02:15:41;0.30;99.90
30234;DHT22;17046;52.074;4.748;2023-03-01T02:18:10;0.30;99.90
30234;DHT22;17046;52.074;4.748;2023-03-01T02:23:27;0.20;99.90
30234;DHT22;17046;52.074;4.748;2023-03-01T02:30:53;-0.10;99.90
30234;DHT22;17046;52.074;4.748;2023-03-01T02:33:38;-0.10;99.90
30234;DHT22;17046;52.074;4.748;2023-03-01T02:36:08;-0.10;99.90
30234;DHT22;17046;52.074;4.748;2023-03-01T02:38:34;-0.10;99.90
30234;DHT22;17046;52.074;4.748;2023-03-01T02:41:00;-0.10;99.90
30234;DHT22;17046;52.074;4.748;2023-03-01T02:43:30;-0.10;99.90
30234;DHT22;17046;52.074;4.748;2023-03-01T02:45:59;-0.10;99.90
30234;DHT22;17046;52.074;4.748;2023-03-01T02:48:27;-0.10;99.90
30234;DHT22;17046;52.074;4.748;2023-03-01T02:51:09;-0.10;99.90
30234;DHT22;17046;52.074;4.748;2023-03-01T02:56:14;0.00;99.90
30234;DHT22;17046;52.074;4.748;2023-03-01T02:58:41;0.00;99.90
30234;DHT22;17046;52.074;4.748;2023-03-01T03:01:10;0.00;99.90
30234;DHT22;17046;52.074;4.748;2023-03-01T03:03:36;0.00;99.90
30234;DHT22;17046;52.074;4.748;2023-03-01T03:06:02;0.00;99.90
30234;DHT22;17046;52.074;4.748;2023-03-01T03:08:27;0.00;99.90
30234;DHT22;17046;52.074;4.748;2023-03-01T03:10:53;-0.10;99.90
30234;DHT22;17046;52.074;4.748;2023-03-01T03:13:18;-0.20;99.90
30234;DHT22;17046;52.074;4.748;2023-03-01T03:15:44;-0.20;99.90
30234;DHT22;17046;52.074;4.748;2023-03-01T03:18:15;-0.20;99.90
30234;DHT22;17046;52.074;4.748;2023-03-01T03:20:42;-0.10;99.90
30234;DHT22;17046;52.074;4.748;2023-03-01T03:23:08;-0.10;99.90
30234;DHT22;17046;52.074;4.748;2023-03-01T03:25:34;-0.20;99.90
30234;DHT22;17046;52.074;4.748;2023-03-01T03:28:03;-0.30;99.90
30234;DHT22;17046;52.074;4.748;2023-03-01T03:30:37;-0.40;99.90
30234;DHT22;17046;52.074;4.748;2023-03-01T03:33:04;-0.50;99.90
30234;DHT22;17046;52.074;4.748;2023-03-01T03:35:38;-0.50;99.90
30234;DHT22;17046;52.074;4.748;2023-03-01T03:38:06;-0.50;99.90
30234;DHT22;17046;52.074;4.748;2023-03-01T03:40:43;-0.40;99.90
30234;DHT22;17046;52.074;4.748;2023-03-01T03:43:17;-0.40;99.90
30234;DHT22;17046;52.074;4.748;2023-03-01T03:45:47;-0.40;99.90
30234;DHT22;17046;52.074;4.748;2023-03-01T03:48:14;-0.40;99.90
30234;DHT22;17046;52.074;4.748;2023-03-01T03:50:40;-0.40;99.90
30234;DHT22;17046;52.074;4.748;2023-03-01T03:53:09;-0.50;99.90
30234;DHT22;17046;52.074;4.748;2023-03-01T03:55:35;-0.50;99.90
30234;DHT22;17046;52.074;4.748;2023-03-01T03:58:06;-0.50;99.90
30234;DHT22;17046;52.074;4.748;2023-03-01T04:00:34;-0.50;99.90
30234;DHT22;17046;52.074;4.748;2023-03-01T04:03:00;-0.50;99.90
30234;DHT22;17046;52.074;4.748;2023-03-01T04:05:27;-0.40;99.90
30234;DHT22;17046;52.074;4.748;2023-03-01T04:07:52;-0.50;99.90
30234;DHT22;17046;52.074;4.748;2023-03-01T04:10:27;-0.60;99.90
30234;DHT22;17046;52.074;4.748;2023-03-01T04:12:53;-0.60;99.90
30234;DHT22;17046;52.074;4.748;2023-03-01T04:15:21;-0.60;99.90
30234;DHT22;17046;52.074;4.748;2023-03-01T04:17:50;-0.70;99.90
30234;DHT22;17046;52.074;4.748;2023-03-01T04:20:18;-0.80;99.90
30234;DHT22;17046;52.074;4.748;2023-03-01T04:22:51;-0.70;99.90
30234;DHT22;17046;52.074;4.748;2023-03-01T04:25:17;-0.70;99.90
30234;DHT22;17046;52.074;4.748;2023-03-01T04:27:43;-0.70;99.90
30234;DHT22;17046;52.074;4.748;2023-03-01T04:30:09;-0.70;99.90
30234;DHT22;17046;52.074;4.748;2023-03-01T04:32:35;-0.70;99.90
30234;DHT22;17046;52.074;4.748;2023-03-01T04:35:00;-0.80;99.90
30234;DHT22;17046;52.074;4.748;2023-03-01T04:37:26;-0.80;99.90
30234;DHT22;17046;52.074;4.748;2023-03-01T04:39:52;-0.90;99.90
30234;DHT22;17046;52.074;4.748;2023-03-01T04:42:18;-0.90;99.90
30234;DHT22;17046;52.074;4.748;2023-03-01T04:44:44;-1.00;99.90
30234;DHT22;17046;52.074;4.748;2023-03-01T04:47:11;-1.00;99.90
30234;DHT22;17046;52.074;4.748;2023-03-01T04:49:36;-1.00;99.90
30234;DHT22;17046;52.074;4.748;2023-03-01T04:52:03;-1.10;99.90
30234;DHT22;17046;52.074;4.748;2023-03-01T04:54:30;-1.10;99.90
30234;DHT22;17046;52.074;4.748;2023-03-01T04:56:56;-1.20;99.90
30234;DHT22;17046;52.074;4.748;2023-03-01T04:59:22;-1.20;99.90
30234;DHT22;17046;52.074;4.748;2023-03-01T05:01:48;-1.30;99.90
30234;DHT22;17046;52.074;4.748;2023-03-01T05:04:14;-1.30;99.90
30234;DHT22;17046;52.074;4.748;2023-03-01T05:06:40;-1.40;99.90
30234;DHT22;17046;52.074;4.748;2023-03-01T05:09:05;-1.30;99.90
30234;DHT22;17046;52.074;4.748;2023-03-01T05:11:31;-1.30;99.90
30234;DHT22;17046;52.074;4.748;2023-03-01T05:14:01;-1.30;99.90
30234;DHT22;17046;52.074;4.748;2023-03-01T05:16:27;-1.20;99.90
30234;DHT22;17046;52.074;4.748;2023-03-01T05:18:53;-1.20;99.90
30234;DHT22;17046;52.074;4.748;2023-03-01T05:21:20;-1.20;99.90
30234;DHT22;17046;52.074;4.748;2023-03-01T05:23:46;-1.20;99.90
30234;DHT22;17046;52.074;4.748;2023-03-01T05:26:12;-1.20;99.90
30234;DHT22;17046;52.074;4.748;2023-03-01T05:28:38;-1.10;99.90
30234;DHT22;17046;52.074;4.748;2023-03-01T05:31:04;-1.10;99.90
30234;DHT22;17046;52.074;4.748;2023-03-01T05:33:40;-1.10;99.90
30234;DHT22;17046;52.074;4.748;2023-03-01T05:36:09;-1.00;99.90
30234;DHT22;17046;52.074;4.748;2023-03-01T05:38:35;-1.00;99.90
30234;DHT22;17046;52.074;4.748;2023-03-01T05:41:01;-1.00;99.90
30234;DHT22;17046;52.074;4.748;2023-03-01T05:43:30;-1.10;99.90
30234;DHT22;17046;52.074;4.748;2023-03-01T05:45:57;-1.20;99.90
30234;DHT22;17046;52.074;4.748;2023-03-01T05:48:23;-1.20;99.90
30234;DHT22;17046;52.074;4.748;2023-03-01T05:50:49;-1.20;99.90
30234;DHT22;17046;52.074;4.748;2023-03-01T05:53:19;-1.10;99.90
30234;DHT22;17046;52.074;4.748;2023-03-01T05:55:48;-1.10;99.90
30234;DHT22;17046;52.074;4.748;2023-03-01T05:58:17;-1.10;99.90
30234;DHT22;17046;52.074;4.748;2023-03-01T06:00:44;-1.10;99.90
30234;DHT22;17046;52.074;4.748;2023-03-01T06:03:12;-1.00;99.90
30234;DHT22;17046;52.074;4.748;2023-03-01T06:05:39;-1.10;99.90
30234;DHT22;17046;52.074;4.748;2023-03-01T06:08:05;-1.10;99.90
30234;DHT22;17046;52.074;4.748;2023-03-01T06:10:30;-1.10;99.90
30234;DHT22;17046;52.074;4.748;2023-03-01T06:12:56;-1.10;99.90
30234;DHT22;17046;52.074;4.748;2023-03-01T06:15:22;-1.10;99.90
30234;DHT22;17046;52.074;4.748;2023-03-01T06:17:48;-1.10;99.90
30234;DHT22;17046;52.074;4.748;2023-03-01T06:20:25;-1.20;99.90
30234;DHT22;17046;52.074;4.748;2023-03-01T06:22:51;-1.30;99.90
30234;DHT22;17046;52.074;4.748;2023-03-01T06:25:20;-1.40;99.90
30234;DHT22;17046;52.074;4.748;2023-03-01T06:27:46;-1.30;99.90
30234;DHT22;17046;52.074;4.748;2023-03-01T06:30:14;-1.40;99.90
30234;DHT22;17046;52.074;4.748;2023-03-01T06:32:41;-1.40;99.90
30234;DHT22;17046;52.074;4.748;2023-03-01T06:35:11;-1.30;99.90
30234;DHT22;17046;52.074;4.748;2023-03-01T06:37:37;-1.30;99.90
30234;DHT22;17046;52.074;4.748;2023-03-01T06:40:04;-1.30;99.90
30234;DHT22;17046;52.074;4.748;2023-03-01T06:42:37;-1.30;99.90
30234;DHT22;17046;52.074;4.748;2023-03-01T06:45:03;-1.40;99.90
30234;DHT22;17046;52.074;4.748;2023-03-01T06:47:29;-1.50;99.90
30234;DHT22;17046;52.074;4.748;2023-03-01T06:49:55;-1.50;99.90
30234;DHT22;17046;52.074;4.748;2023-03-01T06:52:21;-1.60;99.90
30234;DHT22;17046;52.074;4.748;2023-03-01T06:54:46;-1.60;99.90
30234;DHT22;17046;52.074;4.748;2023-03-01T06:57:12;-1.60;99.90
30234;DHT22;17046;52.074;4.748;2023-03-01T06:59:37;-1.60;99.90
30234;DHT22;17046;52.074;4.748;2023-03-01T07:02:03;-1.60;99.90
30234;DHT22;17046;52.074;4.748;2023-03-01T07:04:28;-1.50;99.90
30234;DHT22;17046;52.074;4.748;2023-03-01T07:06:55;-1.50;99.90
30234;DHT22;17046;52.074;4.748;2023-03-01T07:09:24;-1.40;99.90
30234;DHT22;17046;52.074;4.748;2023-03-01T07:11:50;-1.20;99.90
30234;DHT22;17046;52.074;4.748;2023-03-01T07:14:16;-1.20;99.90
30234;DHT22;17046;52.074;4.748;2023-03-01T07:16:41;-1.10;99.90
30234;DHT22;17046;52.074;4.748;2023-03-01T07:19:07;-1.00;99.90
30234;DHT22;17046;52.074;4.748;2023-03-01T07:21:33;-0.90;99.90
30234;DHT22;17046;52.074;4.748;2023-03-01T07:23:58;-0.80;99.90
30234;DHT22;17046;52.074;4.748;2023-03-01T07:26:24;-0.70;99.90
30234;DHT22;17046;52.074;4.748;2023-03-01T07:28:49;-0.60;99.90
30234;DHT22;17046;52.074;4.748;2023-03-01T07:31:15;-0.50;99.90
30234;DHT22;17046;52.074;4.748;2023-03-01T07:33:40;-0.40;99.90
30234;DHT22;17046;52.074;4.748;2023-03-01T07:36:06;-0.40;99.90
30234;DHT22;17046;52.074;4.748;2023-03-01T07:38:32;-0.30;99.90
30234;DHT22;17046;52.074;4.748;2023-03-01T07:41:02;-0.30;99.90
30234;DHT22;17046;52.074;4.748;2023-03-01T07:43:29;-0.20;99.90
30234;DHT22;17046;52.074;4.748;2023-03-01T07:45:59;-0.10;99.90
30234;DHT22;17046;52.074;4.748;2023-03-01T07:48:25;0.00;99.90
30234;DHT22;17046;52.074;4.748;2023-03-01T07:50:51;0.00;99.90
30234;DHT22;17046;52.074;4.748;2023-03-01T07:53:16;0.10;99.90
30234;DHT22;17046;52.074;4.748;2023-03-01T07:55:42;0.10;99.90
30234;DHT22;17046;52.074;4.748;2023-03-01T07:58:07;0.20;99.90
30234;DHT22;17046;52.074;4.748;2023-03-01T08:00:33;0.20;99.90
30234;DHT22;17046;52.074;4.748;2023-03-01T08:03:00;0.20;99.90
30234;DHT22;17046;52.074;4.748;2023-03-01T08:05:26;0.20;99.90
30234;DHT22;17046;52.074;4.748;2023-03-01T08:07:52;0.30;99.90
30234;DHT22;17046;52.074;4.748;2023-03-01T08:10:18;0.30;99.90
30234;DHT22;17046;52.074;4.748;2023-03-01T08:12:43;0.40;99.90
30234;DHT22;17046;52.074;4.748;2023-03-01T08:15:09;0.40;99.90
30234;DHT22;17046;52.074;4.748;2023-03-01T08:17:35;0.50;99.90
30234;DHT22;17046;52.074;4.748;2023-03-01T08:20:01;0.50;99.90
30234;DHT22;17046;52.074;4.748;2023-03-01T08:22:28;0.60;99.90
30234;DHT22;17046;52.074;4.748;2023-03-01T08:24:53;0.60;99.90
30234;DHT22;17046;52.074;4.748;2023-03-01T08:27:21;0.60;99.90
30234;DHT22;17046;52.074;4.748;2023-03-01T08:29:46;0.70;99.90
30234;DHT22;17046;52.074;4.748;2023-03-01T08:32:12;0.70;99.90
30234;DHT22;17046;52.074;4.748;2023-03-01T08:34:37;0.80;99.90
30234;DHT22;17046;52.074;4.748;2023-03-01T08:37:03;0.90;99.90
30234;DHT22;17046;52.074;4.748;2023-03-01T08:39:29;0.90;99.90
30234;DHT22;17046;52.074;4.748;2023-03-01T08:41:55;1.00;99.90
30234;DHT22;17046;52.074;4.748;2023-03-01T08:44:20;1.10;99.90
30234;DHT22;17046;52.074;4.748;2023-03-01T08:46:47;1.10;99.90
30234;DHT22;17046;52.074;4.748;2023-03-01T08:49:18;1.20;99.90
30234;DHT22;17046;52.074;4.748;2023-03-01T08:51:44;1.30;99.90
30234;DHT22;17046;52.074;4.748;2023-03-01T08:54:13;1.30;99.90
30234;DHT22;17046;52.074;4.748;2023-03-01T08:56:40;1.40;99.90
30234;DHT22;17046;52.074;4.748;2023-03-01T08:59:06;1.50;99.90
30234;DHT22;17046;52.074;4.748;2023-03-01T09:01:32;1.60;99.90
30234;DHT22;17046;52.074;4.748;2023-03-01T09:03:58;1.80;99.90
30234;DHT22;17046;52.074;4.748;2023-03-01T09:06:24;1.80;99.90
30234;DHT22;17046;52.074;4.748;2023-03-01T09:08:50;1.90;99.90
30234;DHT22;17046;52.074;4.748;2023-03-01T09:11:19;2.00;99.90
30234;DHT22;17046;52.074;4.748;2023-03-01T09:13:47;2.10;99.90
30234;DHT22;17046;52.074;4.748;2023-03-01T09:16:15;2.20;99.90
30234;DHT22;17046;52.074;4.748;2023-03-01T09:18:43;2.20;99.90
30234;DHT22;17046;52.074;4.748;2023-03-01T09:21:14;2.30;99.90
30234;DHT22;17046;52.074;4.748;2023-03-01T09:23:42;2.40;99.90
30234;DHT22;17046;52.074;4.748;2023-03-01T09:26:11;2.40;99.90
30234;DHT22;17046;52.074;4.748;2023-03-01T09:28:37;2.50;99.90
30234;DHT22;17046;52.074;4.748;2023-03-01T09:31:04;2.60;99.90
30234;DHT22;17046;52.074;4.748;2023-03-01T09:33:31;2.80;99.90
30234;DHT22;17046;52.074;4.748;2023-03-01T09:36:02;2.80;99.90
30234;DHT22;17046;52.074;4.748;2023-03-01T09:38:28;2.90;99.90
30234;DHT22;17046;52.074;4.748;2023-03-01T09:40:54;3.00;99.90
30234;DHT22;17046;52.074;4.748;2023-03-01T09:46:03;3.10;94.10
30234;DHT22;17046;52.074;4.748;2023-03-01T09:48:41;3.20;80.30
30234;DHT22;17046;52.074;4.748;2023-03-01T09:51:14;3.30;52.70
30234;DHT22;17046;52.074;4.748;2023-03-01T09:53:42;3.30;42.00
30234;DHT22;17046;52.074;4.748;2023-03-01T09:56:20;3.50;39.70
30234;DHT22;17046;52.074;4.748;2023-03-01T10:01:49;3.70;1.00
30234;DHT22;17046;52.074;4.748;2023-03-01T10:04:40;3.80;1.00
30234;DHT22;17046;52.074;4.748;2023-03-01T10:07:27;3.90;1.00
30234;DHT22;17046;52.074;4.748;2023-03-01T10:09:55;4.10;1.00
30234;DHT22;17046;52.074;4.748;2023-03-01T10:12:27;4.20;1.00
30234;DHT22;17046;52.074;4.748;2023-03-01T10:15:18;4.20;1.00
30234;DHT22;17046;52.074;4.748;2023-03-01T10:17:55;4.30;1.00
30234;DHT22;17046;52.074;4.748;2023-03-01T10:20:30;4.30;1.00
30234;DHT22;17046;52.074;4.748;2023-03-01T10:22:58;4.40;1.00
30234;DHT22;17046;52.074;4.748;2023-03-01T10:28:34;4.60;1.00
30234;DHT22;17046;52.074;4.748;2023-03-01T10:31:02;4.60;1.00
30234;DHT22;17046;52.074;4.748;2023-03-01T10:33:32;4.70;1.00
30234;DHT22;17046;52.074;4.748;2023-03-01T10:35:59;4.60;99.90
30234;DHT22;17046;52.074;4.748;2023-03-01T10:38:24;4.70;1.00
30234;DHT22;17046;52.074;4.748;2023-03-01T10:40:54;4.80;1.00
30234;DHT22;17046;52.074;4.748;2023-03-01T10:43:20;4.80;99.90
30234;DHT22;17046;52.074;4.748;2023-03-01T10:45:46;4.90;1.00
30234;DHT22;17046;52.074;4.748;2023-03-01T10:48:15;5.00;99.90
30234;DHT22;17046;52.074;4.748;2023-03-01T10:50:46;5.00;99.90
30234;DHT22;17046;52.074;4.748;2023-03-01T10:56:03;5.10;1.00
30234;DHT22;17046;52.074;4.748;2023-03-01T10:58:30;5.10;1.00
30234;DHT22;17046;52.074;4.748;2023-03-01T11:01:02;5.10;1.00
30234;DHT22;17046;52.074;4.748;2023-03-01T11:03:34;5.10;1.00
30234;DHT22;17046;52.074;4.748;2023-03-01T11:06:26;5.20;1.00
30234;DHT22;17046;52.074;4.748;2023-03-01T11:08:51;5.20;1.00
30234;DHT22;17046;52.074;4.748;2023-03-01T11:11:37;5.20;1.00
30234;DHT22;17046;52.074;4.748;2023-03-01T11:14:26;6.00;1.00
30234;DHT22;17046;52.074;4.748;2023-03-01T11:20:23;5.30;1.00
30234;DHT22;17046;52.074;4.748;2023-03-01T11:22:57;5.40;1.00
30234;DHT22;17046;52.074;4.748;2023-03-01T11:25:26;5.50;1.00
30234;DHT22;17046;52.074;4.748;2023-03-01T11:27:54;5.60;1.00
30234;DHT22;17046;52.074;4.748;2023-03-01T11:33:05;5.70;99.90
30234;DHT22;17046;52.074;4.748;2023-03-01T11:35:41;5.70;99.90
30234;DHT22;17046;52.074;4.748;2023-03-01T11:38:24;5.60;99.90
30234;DHT22;17046;52.074;4.748;2023-03-01T12:00:02;5.80;99.90
30234;DHT22;17046;52.074;4.748;2023-03-01T12:30:52;6.20;99.90
30234;DHT22;17046;52.074;4.748;2023-03-01T12:33:38;6.30;99.90
30234;DHT22;17046;52.074;4.748;2023-03-01T12:39:17;6.30;99.90
30234;DHT22;17046;52.074;4.748;2023-03-01T12:50:45;6.30;99.90
30234;DHT22;17046;52.074;4.748;2023-03-01T12:53:34;6.40;99.90
30234;DHT22;17046;52.074;4.748;2023-03-01T12:56:07;6.40;99.90
30234;DHT22;17046;52.074;4.748;2023-03-01T12:58:41;6.30;99.90
30234;DHT22;17046;52.074;4.748;2023-03-01T13:11:42;6.40;99.90
30234;DHT22;17046;52.074;4.748;2023-03-01T13:16:46;6.50;99.90
30234;DHT22;17046;52.074;4.748;2023-03-01T13:19:18;6.60;99.90
30234;DHT22;17046;52.074;4.748;2023-03-01T13:21:45;6.60;99.90
30234;DHT22;17046;52.074;4.748;2023-03-01T13:24:24;6.60;99.90
30234;DHT22;17046;52.074;4.748;2023-03-01T13:27:18;6.60;99.90
30234;DHT22;17046;52.074;4.748;2023-03-01T13:29:55;6.70;99.90
30234;DHT22;17046;52.074;4.748;2023-03-01T13:32:32;6.70;99.90
30234;DHT22;17046;52.074;4.748;2023-03-01T13:37:46;6.60;99.90
30234;DHT22;17046;52.074;4.748;2023-03-01T13:42:49;6.60;99.90
30234;DHT22;17046;52.074;4.748;2023-03-01T13:45:22;6.70;99.90
30234;DHT22;17046;52.074;4.748;2023-03-01T13:47:54;6.60;99.90
30234;DHT22;17046;52.074;4.748;2023-03-01T13:50:25;6.80;99.90
30234;DHT22;17046;52.074;4.748;2023-03-01T13:55:27;6.80;99.90
30234;DHT22;17046;52.074;4.748;2023-03-01T13:58:00;6.90;99.90
30234;DHT22;17046;52.074;4.748;2023-03-01T14:03:19;7.00;99.90
30234;DHT22;17046;52.074;4.748;2023-03-01T14:06:02;6.80;99.90
30234;DHT22;17046;52.074;4.748;2023-03-01T14:08:30;6.80;99.90
30234;DHT22;17046;52.074;4.748;2023-03-01T14:11:27;6.80;99.90
30234;DHT22;17046;52.074;4.748;2023-03-01T14:19:19;6.90;99.90
30234;DHT22;17046;52.074;4.748;2023-03-01T14:21:47;6.90;99.90
30234;DHT22;17046;52.074;4.748;2023-03-01T14:24:21;7.00;99.90
30234;DHT22;17046;52.074;4.748;2023-03-01T14:26:48;7.00;99.90
30234;DHT22;17046;52.074;4.748;2023-03-01T14:29:34;6.90;99.90
30234;DHT22;17046;52.074;4.748;2023-03-01T14:32:11;7.00;99.90
30234;DHT22;17046;52.074;4.748;2023-03-01T14:34:43;7.10;99.90
30234;DHT22;17046;52.074;4.748;2023-03-01T14:37:11;6.90;99.90
30234;DHT22;17046;52.074;4.748;2023-03-01T14:39:37;7.00;99.90
30234;DHT22;17046;52.074;4.748;2023-03-01T14:42:04;7.00;99.90
30234;DHT22;17046;52.074;4.748;2023-03-01T14:44:30;7.00;99.90
30234;DHT22;17046;52.074;4.748;2023-03-01T14:46:59;7.00;99.90
30234;DHT22;17046;52.074;4.748;2023-03-01T14:49:30;7.00;99.90
30234;DHT22;17046;52.074;4.748;2023-03-01T14:52:04;7.00;99.90
30234;DHT22;17046;52.074;4.748;2023-03-01T14:54:38;7.00;99.90
30234;DHT22;17046;52.074;4.748;2023-03-01T14:57:05;7.00;99.90
30234;DHT22;17046;52.074;4.748;2023-03-01T14:59:33;7.10;99.90
30234;DHT22;17046;52.074;4.748;2023-03-01T15:02:00;7.10;99.90
30234;DHT22;17046;52.074;4.748;2023-03-01T15:04:27;7.10;99.90
30234;DHT22;17046;52.074;4.748;2023-03-01T15:06:54;7.10;99.90
30234;DHT22;17046;52.074;4.748;2023-03-01T15:09:21;7.10;99.90
30234;DHT22;17046;52.074;4.748;2023-03-01T15:18:00;7.10;99.90
30234;DHT22;17046;52.074;4.748;2023-03-01T15:20:28;7.10;99.90
30234;DHT22;17046;52.074;4.748;2023-03-01T15:22:56;7.00;99.90
30234;DHT22;17046;52.074;4.748;2023-03-01T15:25:27;7.10;99.90
30234;DHT22;17046;52.074;4.748;2023-03-01T15:27:55;7.10;99.90
30234;DHT22;17046;52.074;4.748;2023-03-01T15:30:31;7.10;99.90
30234;DHT22;17046;52.074;4.748;2023-03-01T15:35:50;7.10;99.90
30234;DHT22;17046;52.074;4.748;2023-03-01T15:38:49;7.10;99.90
30234;DHT22;17046;52.074;4.748;2023-03-01T15:41:37;7.10;99.90
30234;DHT22;17046;52.074;4.748;2023-03-01T15:44:27;7.10;99.90
30234;DHT22;17046;52.074;4.748;2023-03-01T15:46:53;7.00;99.90
30234;DHT22;17046;52.074;4.748;2023-03-01T15:49:25;7.00;99.90
30234;DHT22;17046;52.074;4.748;2023-03-01T15:51:54;7.00;99.90
30234;DHT22;17046;52.074;4.748;2023-03-01T15:54:22;7.00;99.90
30234;DHT22;17046;52.074;4.748;2023-03-01T15:56:49;7.00;99.90
30234;DHT22;17046;52.074;4.748;2023-03-01T15:59:14;7.00;99.90
30234;DHT22;17046;52.074;4.748;2023-03-01T16:01:41;7.00;99.90
30234;DHT22;17046;52.074;4.748;2023-03-01T16:04:06;7.00;99.90
30234;DHT22;17046;52.074;4.748;2023-03-01T16:06:32;7.00;99.90
30234;DHT22;17046;52.074;4.748;2023-03-01T16:08:57;6.90;99.90
30234;DHT22;17046;52.074;4.748;2023-03-01T16:11:23;6.90;99.90
30234;DHT22;17046;52.074;4.748;2023-03-01T16:13:49;6.80;99.90
30234;DHT22;17046;52.074;4.748;2023-03-01T16:16:15;6.80;99.90
30234;DHT22;17046;52.074;4.748;2023-03-01T16:18:46;6.70;99.90
30234;DHT22;17046;52.074;4.748;2023-03-01T16:21:22;6.70;99.90
30234;DHT22;17046;52.074;4.748;2023-03-01T16:23:48;6.60;99.90
30234;DHT22;17046;52.074;4.748;2023-03-01T16:26:14;6.60;99.90
30234;DHT22;17046;52.074;4.748;2023-03-01T16:28:41;6.60;99.90
30234;DHT22;17046;52.074;4.748;2023-03-01T16:31:07;6.50;99.90
30234;DHT22;17046;52.074;4.748;2023-03-01T16:33:33;6.50;99.90
30234;DHT22;17046;52.074;4.748;2023-03-01T16:36:09;6.30;99.90
30234;DHT22;17046;52.074;4.748;2023-03-01T16:38:35;6.30;99.90
30234;DHT22;17046;52.074;4.748;2023-03-01T16:41:01;6.30;99.90
30234;DHT22;17046;52.074;4.748;2023-03-01T16:43:26;6.20;99.90
30234;DHT22;17046;52.074;4.748;2023-03-01T16:45:52;6.10;1.00
30234;DHT22;17046;52.074;4.748;2023-03-01T16:48:18;6.10;1.00
30234;DHT22;17046;52.074;4.748;2023-03-01T16:50:44;6.00;1.00
30234;DHT22;17046;52.074;4.748;2023-03-01T16:53:09;5.90;1.00
30234;DHT22;17046;52.074;4.748;2023-03-01T16:55:35;5.80;1.00
30234;DHT22;17046;52.074;4.748;2023-03-01T16:58:01;5.70;1.00
30234;DHT22;17046;52.074;4.748;2023-03-01T17:00:28;5.60;1.00
30234;DHT22;17046;52.074;4.748;2023-03-01T17:02:54;5.50;1.00
30234;DHT22;17046;52.074;4.748;2023-03-01T17:05:19;5.50;1.00
30234;DHT22;17046;52.074;4.748;2023-03-01T17:07:46;5.40;1.00
30234;DHT22;17046;52.074;4.748;2023-03-01T17:10:12;5.40;1.00
30234;DHT22;17046;52.074;4.748;2023-03-01T17:12:38;5.30;1.00
30234;DHT22;17046;52.074;4.748;2023-03-01T17:15:05;5.20;1.00
30234;DHT22;17046;52.074;4.748;2023-03-01T17:17:32;5.10;1.00
30234;DHT22;17046;52.074;4.748;2023-03-01T17:19:59;5.00;15.50
30234;DHT22;17046;52.074;4.748;2023-03-01T17:22:25;5.00;35.90
30234;DHT22;17046;52.074;4.748;2023-03-01T17:24:51;4.90;99.90
30234;DHT22;17046;52.074;4.748;2023-03-01T17:27:16;4.70;99.90
30234;DHT22;17046;52.074;4.748;2023-03-01T17:29:42;4.70;99.90
30234;DHT22;17046;52.074;4.748;2023-03-01T17:32:08;4.60;99.90
30234;DHT22;17046;52.074;4.748;2023-03-01T17:34:34;4.50;99.90
30234;DHT22;17046;52.074;4.748;2023-03-01T17:37:00;4.40;99.90
30234;DHT22;17046;52.074;4.748;2023-03-01T17:39:26;4.40;99.90
30234;DHT22;17046;52.074;4.748;2023-03-01T17:41:55;4.30;99.90
30234;DHT22;17046;52.074;4.748;2023-03-01T17:44:21;4.20;99.90
30234;DHT22;17046;52.074;4.748;2023-03-01T17:46:47;4.20;99.90
30234;DHT22;17046;52.074;4.748;2023-03-01T17:49:12;4.10;99.90
30234;DHT22;17046;52.074;4.748;2023-03-01T17:51:38;4.00;99.90
30234;DHT22;17046;52.074;4.748;2023-03-01T17:54:04;3.90;99.90
30234;DHT22;17046;52.074;4.748;2023-03-01T17:56:30;3.80;99.90
30234;DHT22;17046;52.074;4.748;2023-03-01T17:58:59;3.70;99.90
30234;DHT22;17046;52.074;4.748;2023-03-01T18:01:25;3.60;1.00
30234;DHT22;17046;52.074;4.748;2023-03-01T18:03:52;3.60;1.00